Airfield :
LOGIN :

Register | Disclaimer

   EN    FR    IT 

 










Legend :    VFR   Marginal VFR   IFR   Intensive IFR   Very Intensive IFR
Visi :
Ceiling :
>= 8 km
>= 3000ft
5 to 8 km
1000 to 3000 ft
1500m to 5 km
500 to 1000 ft
800 to 1500m
200 to 500 ft
< 800m
< 200 ft
Symbols :   Thunderstorms  Fog  Heavy snow  Heavy precipitations  Wind > 20 kt
SIGMETs :     Misc.  Thunderstorms  Icing  Turbulence  Mountain Waves  Volcanic Ashes






- Airport Elevation : 1041 ft
- IATA code : XMF


LFSM - Montbéliard-Courcelles

CURRENT METAR :
  • 162330Z AUTO 00000KT 2000 -SN BR FEW003 OVC018 M02/M02 Q1019

EXPIRED METARs :
  • 162300Z AUTO 00000KT 2000 -SN BR SCT004 OVC019 M02/M02 Q1019
  • 162230Z AUTO 00000KT 2100 -SN BR OVC019 M02/M02 Q1020
  • 162200Z AUTO 00000KT 2000 -SN BR FEW005 SCT015 OVC022 M02/M02 Q1020
  • 162130Z AUTO 00000KT 2300 -SN BR FEW004 SCT018 BKN025 M02/M02 Q1020
  • 162100Z AUTO VRB01KT 2500 -SN BR FEW005 SCT023 OVC031 M02/M02 Q1021

TAF N/A



MET'MAP, your aeronautical weather chart ! - Copyright ORBIFLY December 2007 - Disclaimer

ORBIFLY MET'MAP TEAM :

Programming & Development : Alexandra Zaïnal
Concept & original design : Baudouin d'Aumeries
Assistance for programming : Marc-Olivier Méhu
Technical & hardware support : Manuel Goepfert

Contact : metmap@orbifly.com




SOURCES & CREDITS :

   NOAA